createdAt,value
2022-08-31T04:49:39.868Z,74.348999
2022-08-31T04:51:54.183Z,73.976997
2022-08-31T04:54:08.550Z,74.956001
2022-08-31T04:56:22.930Z,74.880997
2022-08-31T04:58:37.330Z,74.471001
2022-08-31T05:00:51.673Z,73.931
2022-08-31T05:03:06.059Z,73.370003
2022-08-31T05:05:20.444Z,72.935997
2022-08-31T05:07:34.825Z,72.394997
2022-08-31T05:09:49.180Z,71.952003
2022-08-31T05:12:03.517Z,71.518997
2022-08-31T05:14:17.870Z,71.148003
2022-08-31T05:16:32.226Z,70.925003
2022-08-31T05:18:47.226Z,70.739998
2022-08-31T05:21:02.261Z,70.607002
2022-08-31T05:23:16.601Z,70.476997
2022-08-31T05:25:30.963Z,70.311996
2022-08-31T05:27:45.298Z,70.127998
2022-08-31T05:29:59.637Z,69.852997
2022-08-31T05:32:13.967Z,69.640999
2022-08-31T05:34:30.288Z,69.498001
2022-08-31T05:36:44.607Z,69.421997
2022-08-31T05:39:01.211Z,69.497002
2022-08-31T05:41:13.401Z,69.32
2022-08-31T05:43:27.776Z,69.053001
2022-08-31T05:45:42.123Z,68.935997
2022-08-31T05:47:56.468Z,68.800003
2022-08-31T05:50:10.794Z,68.709
2022-08-31T05:52:26.140Z,68.681
2022-08-31T05:54:40.455Z,68.621002
2022-08-31T05:57:01.411Z,68.611
2022-08-31T05:59:12.099Z,68.655998
2022-08-31T06:01:26.498Z,68.650002
2022-08-31T06:03:40.858Z,68.57
2022-08-31T06:05:55.181Z,68.556999
2022-08-31T06:08:13.131Z,68.495003
2022-08-31T06:10:25.993Z,68.481003
2022-08-31T06:12:40.467Z,68.499001
2022-08-31T06:14:54.885Z,68.443001
2022-08-31T06:17:09.295Z,68.434998
2022-08-31T06:19:23.664Z,68.419998
2022-08-31T06:21:38.018Z,68.422997
2022-08-31T06:23:55.356Z,68.446999
2022-08-31T06:26:09.691Z,68.466003
2022-08-31T06:28:24.045Z,68.442001
2022-08-31T06:30:44.207Z,68.392998
2022-08-31T06:32:58.595Z,68.311996
2022-08-31T06:35:11.113Z,68.297997
2022-08-31T06:37:25.461Z,68.330002
2022-08-31T06:39:39.780Z,68.383003
2022-08-31T06:41:56.107Z,68.353996
2022-08-31T06:44:10.446Z,68.425003
2022-08-31T06:46:24.835Z,68.515999
2022-08-31T06:48:39.198Z,68.498001
2022-08-31T06:50:53.549Z,68.463997
2022-08-31T06:53:07.926Z,68.362999
2022-08-31T06:55:22.261Z,68.386002
2022-08-31T06:57:36.694Z,68.560997
2022-08-31T06:59:51.087Z,68.765999
2022-08-31T07:02:05.603Z,68.767998
2022-08-31T07:04:19.833Z,68.667999
2022-08-31T07:06:34.179Z,68.762001
2022-08-31T07:08:48.530Z,68.700996
2022-08-31T07:11:02.888Z,68.603996
2022-08-31T07:13:17.404Z,68.638
2022-08-31T07:15:31.584Z,68.727997
2022-08-31T07:17:45.941Z,68.831001
2022-08-31T07:20:00.369Z,68.628998
2022-08-31T07:22:15.706Z,68.666
2022-08-31T07:24:29.809Z,68.588997
2022-08-31T07:26:44.158Z,68.495003
2022-08-31T07:28:58.487Z,68.181999
2022-08-31T07:31:12.845Z,68.060997
2022-08-31T07:33:27.169Z,67.57
2022-08-31T07:35:41.579Z,67.450996
2022-08-31T07:37:55.939Z,67.289001
2022-08-31T07:40:10.407Z,66.800003
2022-08-31T07:42:24.696Z,66.782997
2022-08-31T07:44:39.045Z,66.792999
2022-08-31T07:46:55.390Z,66.635002
2022-08-31T07:49:10.713Z,66.613998
2022-08-31T07:51:25.060Z,66.578003
2022-08-31T07:53:39.388Z,66.857002
2022-08-31T07:55:53.760Z,66.829002
2022-08-31T07:58:08.186Z,66.947998
2022-08-31T08:00:22.604Z,67.507004
2022-08-31T08:02:37.000Z,67.254997
2022-08-31T08:04:51.413Z,67.582001
2022-08-31T08:07:05.765Z,67.879997
2022-08-31T08:09:24.301Z,68.220001
2022-08-31T08:11:36.458Z,67.819
2022-08-31T08:13:50.799Z,67.858002
2022-08-31T08:16:05.172Z,67.832001
2022-08-31T08:18:19.513Z,67.679001
2022-08-31T08:20:34.086Z,67.621002
2022-08-31T08:22:53.964Z,67.698997
2022-08-31T08:25:06.462Z,67.600998
2022-08-31T08:27:20.806Z,67.767998
2022-08-31T08:29:35.475Z,67.667
2022-08-31T08:31:49.905Z,67.862
2022-08-31T08:34:05.161Z,67.825996
2022-08-31T08:36:19.503Z,67.751999
2022-08-31T08:38:33.848Z,67.647003
2022-08-31T08:40:48.280Z,67.591003
2022-08-31T08:43:02.533Z,67.505997
2022-08-31T08:45:16.898Z,67.338997
2022-08-31T08:47:34.394Z,67.277
2022-08-31T08:49:52.246Z,67.232002
2022-08-31T08:52:04.906Z,67.174004
2022-08-31T08:54:19.337Z,66.832001
2022-08-31T08:56:34.664Z,67
2022-08-31T08:58:49.009Z,66.844002
2022-08-31T09:01:03.376Z,66.847
2022-08-31T09:03:17.834Z,66.737999
2022-08-31T09:05:32.015Z,66.501999
2022-08-31T09:07:46.356Z,66.099998
2022-08-31T09:10:00.695Z,66.116997
2022-08-31T09:12:15.215Z,65.894997
2022-08-31T09:14:29.450Z,65.575996
2022-08-31T09:16:43.828Z,65.623001
2022-08-31T09:18:58.173Z,65.183998
2022-08-31T09:21:12.516Z,64.987999
2022-08-31T09:23:26.894Z,64.621002
2022-08-31T09:25:41.405Z,64.030998
2022-08-31T09:27:55.766Z,63.300999
2022-08-31T09:30:10.161Z,62.661999
2022-08-31T09:32:24.774Z,62.146
2022-08-31T09:34:38.965Z,61.972
2022-08-31T09:36:53.314Z,61.68
2022-08-31T09:39:07.711Z,61.109001
2022-08-31T09:41:22.120Z,60.744999
2022-08-31T09:43:36.459Z,60.448002
2022-08-31T09:45:51.939Z,60.203999
2022-08-31T09:48:06.260Z,59.766998
2022-08-31T09:50:20.688Z,59.529999
2022-08-31T09:52:35.069Z,59.216999
2022-08-31T09:54:49.408Z,59.056999
2022-08-31T09:57:03.777Z,58.303001
2022-08-31T09:59:18.111Z,58.236
2022-08-31T10:01:32.549Z,57.737
2022-08-31T10:03:46.836Z,57.512001
2022-08-31T10:06:02.206Z,57.854
2022-08-31T10:08:19.555Z,58.243
2022-08-31T10:10:32.004Z,58.181999
2022-08-31T10:12:46.310Z,57.860001
2022-08-31T10:15:00.643Z,57.799
2022-08-31T10:17:15.064Z,57.594002
2022-08-31T10:19:29.404Z,57.674
2022-08-31T10:21:43.778Z,57.612
2022-08-31T10:23:58.099Z,57.018002
2022-08-31T10:26:12.433Z,56.469002
2022-08-31T10:28:27.089Z,55.963001
2022-08-31T10:30:41.524Z,55.408001
2022-08-31T10:32:55.774Z,55.236
2022-08-31T10:35:10.123Z,55.321999
2022-08-31T10:37:25.464Z,54.937
2022-08-31T10:39:39.794Z,55.139
2022-08-31T10:41:55.136Z,55.396999
2022-08-31T10:44:09.481Z,55.400002
2022-08-31T10:46:23.897Z,55.393002
2022-08-31T10:48:38.199Z,55.445
2022-08-31T10:50:53.531Z,55.154999
2022-08-31T10:53:07.867Z,55.167999
2022-08-31T10:55:22.221Z,55.258999
2022-08-31T10:57:36.588Z,55.414001
2022-08-31T10:59:55.441Z,55.469002
2022-08-31T11:02:07.354Z,54.932999
2022-08-31T11:04:21.809Z,55.136002
2022-08-31T11:06:38.110Z,54.946999
2022-08-31T11:08:52.446Z,55.102001
2022-08-31T11:11:06.818Z,54.834999
2022-08-31T11:13:21.242Z,54.185001
2022-08-31T11:15:35.608Z,54.529999
2022-08-31T11:17:50.015Z,54.237999
2022-08-31T11:20:04.364Z,53.980999
2022-08-31T11:22:18.779Z,54.027
2022-08-31T11:24:37.052Z,54.083
2022-08-31T11:26:48.483Z,53.558998
2022-08-31T11:29:02.842Z,53.625999
2022-08-31T11:31:17.184Z,53.68
2022-08-31T11:33:31.533Z,53.613998
2022-08-31T11:35:45.896Z,53.360001
2022-08-31T11:38:00.217Z,53.667999
2022-08-31T11:40:15.597Z,53.719002
2022-08-31T11:42:29.906Z,52.904999
2022-08-31T11:44:44.269Z,52.230999
2022-08-31T11:46:58.623Z,51.032001
2022-08-31T11:49:15.029Z,50.411999
2022-08-31T11:51:29.385Z,50.130001
2022-08-31T11:53:45.690Z,49.640999
2022-08-31T11:56:00.084Z,49.491001
2022-08-31T11:58:18.462Z,50.192001
2022-08-31T12:00:30.886Z,50.412998
2022-08-31T12:02:45.231Z,50.851002
2022-08-31T12:04:59.732Z,50.508999
2022-08-31T12:07:14.884Z,50.223
2022-08-31T12:09:29.242Z,49.273998
2022-08-31T12:11:43.610Z,50.161999
2022-08-31T12:13:57.973Z,50.662998
2022-08-31T12:16:12.551Z,51.452
2022-08-31T12:18:26.649Z,51.334
2022-08-31T12:20:41.027Z,50.402
2022-08-31T12:22:55.416Z,50.196999
2022-08-31T12:25:09.864Z,50.405998
2022-08-31T12:27:24.197Z,50.463001
2022-08-31T12:29:38.552Z,50.063
2022-08-31T12:31:52.918Z,49.097
2022-08-31T12:34:07.239Z,48.813999
2022-08-31T12:36:22.640Z,48.161999
2022-08-31T12:38:37.951Z,48.558998
2022-08-31T12:40:53.333Z,48.106998
2022-08-31T12:43:07.623Z,48.127998
2022-08-31T12:45:22.662Z,48.956001
2022-08-31T12:47:38.090Z,49.240002
2022-08-31T12:49:52.695Z,48.897999
2022-08-31T12:52:07.035Z,48.75
2022-08-31T12:54:21.929Z,48.029999
2022-08-31T12:56:36.335Z,47.967999
2022-08-31T12:58:51.615Z,46.416
2022-08-31T13:01:09.085Z,46.397999
2022-08-31T13:03:22.127Z,46.958
2022-08-31T13:05:36.741Z,45.976002
2022-08-31T13:07:50.951Z,46.66
2022-08-31T13:10:05.324Z,46.389999
2022-08-31T13:12:20.026Z,46.338001
2022-08-31T13:14:34.425Z,45.958
2022-08-31T13:16:49.264Z,45.383999
2022-08-31T13:19:03.430Z,44.986
2022-08-31T13:21:19.219Z,44.417999
2022-08-31T13:23:33.559Z,43.764
2022-08-31T13:25:51.725Z,43.539001
2022-08-31T13:28:04.003Z,43.091
2022-08-31T13:30:18.394Z,42.645
2022-08-31T13:32:35.724Z,42.358002
2022-08-31T13:34:50.077Z,42.984001
2022-08-31T13:37:04.475Z,43.122002
2022-08-31T13:39:19.016Z,42.257999
2022-08-31T13:41:35.906Z,42.652
2022-08-31T13:43:50.282Z,43.708
2022-08-31T13:46:04.709Z,43.744999
2022-08-31T13:48:19.070Z,44.602001
2022-08-31T13:50:33.487Z,44.972
2022-08-31T13:52:55.740Z,44.687
2022-08-31T13:55:05.229Z,43.882
2022-08-31T13:57:19.847Z,43.789001
2022-08-31T13:59:34.141Z,43.379002
2022-08-31T14:01:48.674Z,42.790001
2022-08-31T14:04:03.054Z,42.658001
2022-08-31T14:06:17.423Z,42.536999
2022-08-31T14:08:31.805Z,41.959999
2022-08-31T14:10:46.214Z,41.712002
2022-08-31T14:13:01.541Z,41.810001
2022-08-31T14:15:15.917Z,41.319
2022-08-31T14:17:30.253Z,41.716
2022-08-31T14:19:44.654Z,42.214001
2022-08-31T14:21:59.827Z,41.856998
2022-08-31T14:24:13.443Z,41.557999
2022-08-31T14:26:27.850Z,42.631001
2022-08-31T14:28:42.190Z,42.93
2022-08-31T14:30:56.585Z,42.713001
2022-08-31T14:33:10.920Z,43.012001
2022-08-31T14:35:27.339Z,42.943001
2022-08-31T14:37:41.698Z,43.095001
2022-08-31T14:39:56.041Z,42.346001
2022-08-31T14:42:12.387Z,42.57
2022-08-31T14:44:26.731Z,42.283001
2022-08-31T14:46:41.198Z,41.958
2022-08-31T14:48:55.535Z,41.678001
2022-08-31T14:51:09.898Z,41.896999
2022-08-31T14:53:24.257Z,41.993
2022-08-31T14:55:38.594Z,41.487999
2022-08-31T14:57:52.960Z,41.353001
2022-08-31T15:00:07.339Z,40.945
2022-08-31T15:02:21.781Z,40.485001
2022-08-31T15:04:38.038Z,40.648998
2022-08-31T15:06:53.350Z,40.266998
2022-08-31T15:09:07.699Z,40.68
2022-08-31T15:11:22.304Z,40.636002
2022-08-31T15:13:36.761Z,40.301998
2022-08-31T15:15:51.085Z,40.924999
2022-08-31T15:18:06.502Z,40.682999
2022-08-31T15:20:20.947Z,40.189999
2022-08-31T15:22:35.283Z,39.734001
2022-08-31T15:24:49.622Z,38.894001
2022-08-31T15:27:03.993Z,38.688999
2022-08-31T15:29:18.603Z,38.341999
2022-08-31T15:31:33.070Z,38.192001
2022-08-31T15:33:47.482Z,38.182999
2022-08-31T15:36:01.857Z,38.268002
2022-08-31T15:38:16.216Z,37.675999
2022-08-31T15:40:30.611Z,37.041
2022-08-31T15:42:47.935Z,37.368
2022-08-31T15:45:02.478Z,37.424999
2022-08-31T15:47:17.811Z,37.640999
2022-08-31T15:49:33.274Z,37.379002
2022-08-31T15:51:47.716Z,37.540001
2022-08-31T15:54:21.021Z,36.589001
2022-08-31T15:56:19.707Z,37.125
2022-08-31T15:58:34.214Z,36.890999
2022-08-31T16:00:48.759Z,36.766998
2022-08-31T16:03:03.212Z,36.401001
2022-08-31T16:05:18.720Z,36.462002
2022-08-31T16:07:33.277Z,36.459
2022-08-31T16:09:47.751Z,36.638
2022-08-31T16:12:02.246Z,36.909
2022-08-31T16:14:16.748Z,37.452
2022-08-31T16:16:32.027Z,38.063
2022-08-31T16:18:45.936Z,38.23
2022-08-31T16:21:01.525Z,38.792999
2022-08-31T16:23:16.174Z,39.624001
2022-08-31T16:25:30.718Z,40.062
2022-08-31T16:27:48.222Z,40.644001
2022-08-31T16:30:02.713Z,40.931999
2022-08-31T16:32:17.233Z,40.902
2022-08-31T16:34:31.756Z,41.082001
2022-08-31T16:36:46.255Z,40.976002
2022-08-31T16:39:00.759Z,40.797001
2022-08-31T16:41:15.282Z,41.480999
2022-08-31T16:43:29.781Z,42.412998
2022-08-31T16:45:44.357Z,42.660999
2022-08-31T16:47:58.842Z,43.091999
2022-08-31T16:50:13.349Z,42.769001
2022-08-31T16:52:27.802Z,43.27
2022-08-31T16:54:42.458Z,44.263
2022-08-31T16:56:57.000Z,44.490002
2022-08-31T16:59:11.610Z,44.293999
2022-08-31T17:01:26.392Z,44.334999
2022-08-31T17:03:40.821Z,44.417999
2022-08-31T17:05:55.475Z,44.355999
2022-08-31T17:08:09.960Z,44.080002
2022-08-31T17:10:24.462Z,44.701
2022-08-31T17:12:38.942Z,44.606998
2022-08-31T17:14:53.463Z,44.839001
2022-08-31T17:17:07.954Z,44.806999
2022-08-31T17:19:22.438Z,44.493
2022-08-31T17:21:36.931Z,44.766998
2022-08-31T17:23:52.431Z,44.793999
2022-08-31T17:26:06.949Z,44.530998
2022-08-31T17:28:21.573Z,45.077
2022-08-31T17:30:35.934Z,45.432999
2022-08-31T17:32:50.457Z,45.393002
2022-08-31T17:35:05.102Z,45.394001
2022-08-31T17:37:20.541Z,45.34
2022-08-31T17:39:35.043Z,45.687
2022-08-31T17:41:49.744Z,45.629002
2022-08-31T17:44:04.252Z,45.974998
2022-08-31T17:46:18.878Z,46.053001
2022-08-31T17:48:33.399Z,46.48
2022-08-31T17:50:47.886Z,46.068001
2022-08-31T17:53:02.407Z,45.933998
2022-08-31T17:55:17.104Z,45.916
2022-08-31T17:57:31.556Z,46.136002
2022-08-31T17:59:46.086Z,45.953999
2022-08-31T18:02:00.569Z,46.07
2022-08-31T18:04:15.239Z,46.314999
2022-08-31T18:06:29.677Z,46.810001
2022-08-31T18:08:44.143Z,46.75
2022-08-31T18:10:58.645Z,47.318001
2022-08-31T18:13:13.168Z,47.756001
2022-08-31T18:15:27.682Z,47.431999
2022-08-31T18:17:42.228Z,47.639999
2022-08-31T18:19:57.332Z,47.689999
2022-08-31T18:22:11.648Z,47.742001
2022-08-31T18:24:26.173Z,47.943001
2022-08-31T18:26:40.641Z,48.277
2022-08-31T18:28:55.133Z,48.325001
2022-08-31T18:31:09.915Z,48.574001
2022-08-31T18:33:24.314Z,48.804001
2022-08-31T18:35:39.798Z,48.897999
2022-08-31T18:37:54.273Z,48.900002
2022-08-31T18:40:09.092Z,49.078999
2022-08-31T18:42:23.307Z,49.171001
2022-08-31T18:44:37.806Z,49.397999
2022-08-31T18:46:52.347Z,49.625
2022-08-31T18:49:12.059Z,49.821999
2022-08-31T18:51:24.462Z,50.120998
2022-08-31T18:53:39.025Z,50.259998
2022-08-31T18:55:53.570Z,50.362999
2022-08-31T18:58:08.060Z,50.543999
2022-08-31T19:00:22.830Z,50.660999
2022-08-31T19:02:38.313Z,50.787998
2022-08-31T19:04:52.850Z,50.898998
2022-08-31T19:07:07.435Z,51.098
2022-08-31T19:09:23.100Z,51.202
2022-08-31T19:11:37.606Z,51.264
2022-08-31T19:13:53.172Z,51.389999
2022-08-31T19:16:15.315Z,51.532001
2022-08-31T19:18:26.096Z,51.584
2022-08-31T19:20:40.662Z,51.529999
2022-08-31T19:22:56.130Z,51.512001
2022-08-31T19:25:11.659Z,51.59
2022-08-31T19:27:28.160Z,51.720001
2022-08-31T19:29:42.680Z,51.969002
2022-08-31T19:31:57.230Z,52.216
2022-08-31T19:34:11.647Z,52.488998
2022-08-31T19:36:26.191Z,52.708
2022-08-31T19:38:40.712Z,52.792999
2022-08-31T19:40:56.320Z,52.886002
2022-08-31T19:45:40.608Z,53.139
2022-08-31T19:47:45.716Z,53.284
2022-08-31T19:50:00.262Z,53.504002
2022-08-31T19:52:14.748Z,53.695999
2022-08-31T19:54:31.267Z,53.821999
2022-08-31T19:56:44.774Z,53.959999
2022-08-31T19:58:59.315Z,54.007999
2022-08-31T20:01:13.797Z,54.187
2022-08-31T20:03:29.245Z,54.282001
2022-08-31T20:05:43.906Z,54.421001
2022-08-31T20:07:58.244Z,54.501999
2022-08-31T20:10:13.729Z,54.584
2022-08-31T20:12:28.227Z,54.604
2022-08-31T20:14:42.715Z,54.660999
2022-08-31T20:16:57.239Z,54.654999
2022-08-31T20:19:12.045Z,54.604
2022-08-31T20:21:26.518Z,54.573002
2022-08-31T20:23:41.013Z,54.516998
2022-08-31T20:25:55.492Z,54.562
2022-08-31T20:28:11.337Z,54.525002
2022-08-31T20:30:25.456Z,54.483002
2022-08-31T20:32:40.959Z,54.553001
2022-08-31T20:34:55.451Z,54.547001
2022-08-31T20:37:08.970Z,54.513
2022-08-31T20:39:23.420Z,54.513
2022-08-31T20:41:38.890Z,54.506001
2022-08-31T20:43:54.359Z,54.595001
2022-08-31T20:46:08.945Z,54.648998
2022-08-31T20:48:23.411Z,54.771
2022-08-31T20:50:37.775Z,54.912998
2022-08-31T20:52:54.166Z,55.085999
2022-08-31T20:55:08.611Z,55.152
2022-08-31T20:57:22.933Z,55.243
2022-08-31T20:59:37.292Z,55.249001
2022-08-31T21:01:51.793Z,55.299999
2022-08-31T21:04:05.986Z,55.34
2022-08-31T21:06:20.326Z,55.269001
2022-08-31T21:08:34.682Z,55.266998
2022-08-31T21:10:49.030Z,55.358002
2022-08-31T21:13:03.379Z,55.32
2022-08-31T21:15:17.724Z,55.247002
2022-08-31T21:17:32.053Z,55.244999
2022-08-31T21:19:46.423Z,55.278999
2022-08-31T21:22:00.779Z,55.402
2022-08-31T21:24:15.138Z,55.300999
2022-08-31T21:26:29.498Z,55.268002
2022-08-31T21:28:45.848Z,55.120998
